createdAt,value
2022-08-29T00:02:52.003Z,5.80
2022-08-29T00:05:54.102Z,5.13
2022-08-29T00:08:56.519Z,5.30
2022-08-29T00:11:58.586Z,5.22
2022-08-29T00:15:00.747Z,5.13
2022-08-29T00:18:02.895Z,5.40
2022-08-29T00:21:07.550Z,5.72
2022-08-29T00:24:09.627Z,5.38
2022-08-29T00:27:11.704Z,6.00
2022-08-29T00:30:14.384Z,6.35
2022-08-29T00:33:16.469Z,6.15
2022-08-29T00:36:18.548Z,5.85
2022-08-29T00:39:23.128Z,5.90
2022-08-29T00:42:25.838Z,6.15
2022-08-29T00:45:28.019Z,5.57
2022-08-29T00:48:30.146Z,5.72
2022-08-29T00:51:32.301Z,5.63
2022-08-29T00:54:34.618Z,5.70
2022-08-29T00:57:36.906Z,6.22
2022-08-29T01:00:39.122Z,5.43
2022-08-29T01:03:42.946Z,6.13
2022-08-29T01:06:45.339Z,5.93
2022-08-29T01:09:47.479Z,6.10
2022-08-29T01:12:49.758Z,6.25
2022-08-29T01:15:52.002Z,5.90
2022-08-29T01:18:57.062Z,6.18
2022-08-29T01:22:10.495Z,5.45
2022-08-29T01:25:16.970Z,5.30
2022-08-29T01:28:28.759Z,6.03
2022-08-29T01:31:56.207Z,6.35
2022-08-29T01:34:59.698Z,5.90
2022-08-29T01:38:01.772Z,6.32
2022-08-29T01:41:03.971Z,5.78
2022-08-29T01:44:11.979Z,6.03
2022-08-29T01:47:14.108Z,5.88
2022-08-29T01:50:17.679Z,6.45
2022-08-29T01:53:19.760Z,5.85
2022-08-29T01:56:28.235Z,6.00
2022-08-29T01:59:31.024Z,6.93
2022-08-29T02:02:34.137Z,6.30
2022-08-29T02:05:36.799Z,6.20
2022-08-29T02:08:40.175Z,5.70
2022-08-29T02:11:42.267Z,6.00
2022-08-29T02:14:44.539Z,5.70
2022-08-29T02:17:48.443Z,5.43
2022-08-29T02:20:50.705Z,5.40
2022-08-29T02:23:54.118Z,5.45
2022-08-29T02:26:56.691Z,5.85
2022-08-29T02:29:59.505Z,4.93
2022-08-29T02:33:01.595Z,5.60
2022-08-29T02:36:07.527Z,4.95
2022-08-29T02:39:10.107Z,5.32
2022-08-29T02:42:13.002Z,5.00
2022-08-29T02:45:15.179Z,5.35
2022-08-29T02:48:17.950Z,5.60
2022-08-29T02:51:27.723Z,5.93
2022-08-29T02:54:29.858Z,5.35
2022-08-29T02:57:31.949Z,5.60
2022-08-29T03:00:35.757Z,5.50
2022-08-29T03:03:38.007Z,5.30
2022-08-29T03:06:40.085Z,5.20
2022-08-29T03:09:42.380Z,4.68
2022-08-29T03:12:44.855Z,4.65
2022-08-29T03:15:47.783Z,4.50
2022-08-29T03:18:50.100Z,4.43
2022-08-29T03:21:52.210Z,4.32
2022-08-29T03:24:54.303Z,4.45
2022-08-29T03:27:56.951Z,4.35
2022-08-29T03:30:59.073Z,4.50
2022-08-29T03:34:01.215Z,4.30
2022-08-29T03:37:03.356Z,4.10
2022-08-29T03:40:06.392Z,3.63
2022-08-29T03:43:09.601Z,4.00
2022-08-29T03:46:11.719Z,4.20
2022-08-29T03:49:15.743Z,3.83
2022-08-29T03:52:17.874Z,3.80
2022-08-29T03:55:20.337Z,3.80
2022-08-29T03:58:22.415Z,3.80
2022-08-29T04:01:28.390Z,3.72
2022-08-29T04:04:49.375Z,3.38
2022-08-29T04:07:56.125Z,3.30
2022-08-29T04:10:58.286Z,3.22
2022-08-29T04:14:00.363Z,3.13
2022-08-29T04:17:04.281Z,3.08
2022-08-29T04:20:07.878Z,3.25
2022-08-29T04:23:12.645Z,3.33
2022-08-29T04:26:36.874Z,3.30
2022-08-29T04:29:39.402Z,3.00
2022-08-29T04:32:41.587Z,3.13
2022-08-29T04:35:43.706Z,3.10
2022-08-29T04:38:45.798Z,2.75
2022-08-29T04:41:47.895Z,2.67
2022-08-29T04:44:49.975Z,2.60
2022-08-29T04:47:52.162Z,2.35
2022-08-29T04:50:58.323Z,1.80
2022-08-29T04:54:00.435Z,2.13
2022-08-29T04:57:03.399Z,1.70
2022-08-29T05:00:13.916Z,1.60
2022-08-29T05:03:16.016Z,1.70
2022-08-29T05:06:19.746Z,1.58
2022-08-29T05:09:24.685Z,1.70
2022-08-29T05:12:28.873Z,2.00
2022-08-29T05:15:31.343Z,1.60
2022-08-29T05:18:33.725Z,1.50
2022-08-29T05:21:37.518Z,1.50
2022-08-29T05:24:39.677Z,1.70
2022-08-29T05:27:41.905Z,2.03
2022-08-29T05:30:44.231Z,1.80
2022-08-29T05:33:46.423Z,2.05
2022-08-29T05:36:48.577Z,2.50
2022-08-29T05:39:50.875Z,2.35
2022-08-29T05:42:53.027Z,2.45
2022-08-29T05:46:03.673Z,2.50
2022-08-29T05:49:05.976Z,2.55
2022-08-29T05:52:08.218Z,2.95
2022-08-29T05:55:11.115Z,2.70
2022-08-29T05:58:13.468Z,2.83
2022-08-29T06:01:22.331Z,3.20
2022-08-29T06:04:28.069Z,2.83
2022-08-29T06:07:31.391Z,2.95
2022-08-29T06:10:34.055Z,2.47
2022-08-29T06:13:36.243Z,2.60
2022-08-29T06:16:39.629Z,2.72
2022-08-29T06:19:42.562Z,3.05
2022-08-29T06:22:44.659Z,2.58
2022-08-29T06:25:54.819Z,2.78
2022-08-29T06:28:57.103Z,3.00
2022-08-29T06:31:59.452Z,2.20
2022-08-29T06:35:01.663Z,2.45
2022-08-29T06:38:03.902Z,3.03
2022-08-29T06:41:11.987Z,2.40
2022-08-29T06:44:14.743Z,2.33
2022-08-29T06:47:16.905Z,1.73
2022-08-29T06:50:19.090Z,1.50
2022-08-29T06:53:31.714Z,1.20
2022-08-29T06:56:37.076Z,1.50
2022-08-29T06:59:39.508Z,1.50
2022-08-29T07:02:42.200Z,1.20
2022-08-29T07:05:44.367Z,1.35
2022-08-29T07:08:55.147Z,1.42
2022-08-29T07:11:57.794Z,1.30
2022-08-29T07:14:59.947Z,1.30
2022-08-29T07:18:02.031Z,1.10
2022-08-29T07:21:08.595Z,1.13
2022-08-29T07:24:10.803Z,1.27
2022-08-29T07:27:13.631Z,1.02
2022-08-29T07:30:16.562Z,0.95
2022-08-29T07:33:18.645Z,1.02
2022-08-29T07:36:20.725Z,1.08
2022-08-29T07:39:23.098Z,1.23
2022-08-29T07:42:25.350Z,1.10
2022-08-29T07:45:27.436Z,1.00
2022-08-29T07:48:29.527Z,1.00
2022-08-29T07:51:31.678Z,1.17
2022-08-29T07:54:33.826Z,0.90
2022-08-29T07:57:39.669Z,1.13
2022-08-29T08:00:42.116Z,0.88
2022-08-29T08:03:44.286Z,1.25
2022-08-29T08:06:47.436Z,0.90
2022-08-29T08:09:49.572Z,1.52
2022-08-29T08:12:51.787Z,1.80
2022-08-29T08:15:55.507Z,0.93
2022-08-29T08:18:57.751Z,1.10
2022-08-29T08:21:59.947Z,0.70
2022-08-29T08:25:02.703Z,0.63
2022-08-29T08:28:04.920Z,0.63
2022-08-29T08:31:08.184Z,0.63
2022-08-29T08:34:10.338Z,0.90
2022-08-29T08:37:15.940Z,0.60
2022-08-29T08:40:28.144Z,0.70
2022-08-29T08:43:50.470Z,0.90
2022-08-29T08:46:58.490Z,0.80
2022-08-29T08:50:23.656Z,0.95
2022-08-29T08:53:28.465Z,0.75
2022-08-29T08:56:39.084Z,0.98
2022-08-29T08:59:44.096Z,0.80
2022-08-29T09:03:17.175Z,0.70
2022-08-29T09:06:55.751Z,0.80
2022-08-29T09:10:33.916Z,0.90
2022-08-29T09:14:18.146Z,0.77
2022-08-29T09:17:30.983Z,0.80
2022-08-29T09:20:39.670Z,0.80
2022-08-29T09:23:54.921Z,0.77
2022-08-29T09:26:57.057Z,0.93
2022-08-29T09:30:14.947Z,1.00
2022-08-29T09:33:17.314Z,1.20
2022-08-29T09:36:48.524Z,1.20
2022-08-29T09:39:59.927Z,0.70
2022-08-29T09:43:02.925Z,0.90
2022-08-29T09:46:11.287Z,0.80
2022-08-29T09:49:18.586Z,0.98
2022-08-29T09:55:37.524Z,0.90
2022-08-29T09:58:41.678Z,0.70
2022-08-29T10:01:43.836Z,0.75
2022-08-29T10:04:49.706Z,0.77
2022-08-29T10:07:53.522Z,0.80
2022-08-29T10:11:21.263Z,0.95
2022-08-29T10:14:35.866Z,0.80
2022-08-29T10:18:05.985Z,0.70
2022-08-29T10:21:26.500Z,0.77
2022-08-29T10:24:43.781Z,0.75
2022-08-29T10:27:55.825Z,0.70
2022-08-29T10:31:08.799Z,0.80
2022-08-29T10:34:46.897Z,0.80
2022-08-29T10:38:04.026Z,1.00
2022-08-29T10:41:40.562Z,0.70
2022-08-29T10:45:09.710Z,1.20
2022-08-29T10:48:20.243Z,1.17
2022-08-29T10:51:50.554Z,0.70
2022-08-29T10:55:17.146Z,1.67
2022-08-29T10:58:59.547Z,1.10
2022-08-29T11:02:39.651Z,0.93
2022-08-29T11:05:49.270Z,0.50
2022-08-29T11:09:35.290Z,0.60
2022-08-29T11:13:05.658Z,0.50
2022-08-29T11:16:21.351Z,0.50
2022-08-29T11:19:47.192Z,0.63
2022-08-29T11:23:04.780Z,0.60
2022-08-29T11:26:27.029Z,0.60
2022-08-29T11:29:43.190Z,0.60
2022-08-29T11:33:19.409Z,0.70
2022-08-29T11:36:49.374Z,0.50
2022-08-29T11:40:02.777Z,0.90
2022-08-29T11:43:12.174Z,0.68
2022-08-29T11:46:15.149Z,0.75
2022-08-29T11:49:37.075Z,0.95
2022-08-29T11:52:39.142Z,0.80
2022-08-29T11:55:46.308Z,0.80
2022-08-29T12:02:00.675Z,0.60
2022-08-29T12:05:17.709Z,0.85
2022-08-29T12:08:47.144Z,0.70
2022-08-29T12:12:13.214Z,12.90
2022-08-29T12:15:29.909Z,2.28
2022-08-29T12:18:36.708Z,3.40
2022-08-29T12:21:42.199Z,5.18
2022-08-29T12:24:44.393Z,1.48
2022-08-29T12:28:43.435Z,0.70
2022-08-29T12:32:27.339Z,0.73
2022-08-29T12:36:05.579Z,1.88
2022-08-29T12:39:23.414Z,2.33
2022-08-29T12:42:51.595Z,1.00
2022-08-29T12:45:53.999Z,0.52
2022-08-29T12:49:51.664Z,2.78
2022-08-29T12:53:26.241Z,0.60
2022-08-29T12:56:28.345Z,0.40
2022-08-29T12:59:30.563Z,0.77
2022-08-29T13:02:35.999Z,0.80
2022-08-29T13:05:39.651Z,1.20
2022-08-29T13:08:42.120Z,0.60
2022-08-29T13:11:44.256Z,0.98
2022-08-29T13:15:00.319Z,0.70
2022-08-29T13:18:02.481Z,0.70
2022-08-29T13:21:34.173Z,1.00
2022-08-29T13:24:36.261Z,1.40
2022-08-29T13:27:38.343Z,0.60
2022-08-29T13:30:40.419Z,0.60
2022-08-29T13:33:46.007Z,0.70
2022-08-29T13:37:01.403Z,0.60
2022-08-29T13:40:33.174Z,0.60
2022-08-29T13:43:41.876Z,0.80
2022-08-29T13:46:47.379Z,0.55
2022-08-29T13:49:50.120Z,0.65
2022-08-29T13:52:54.525Z,0.50
2022-08-29T13:55:57.012Z,0.50
2022-08-29T13:58:59.126Z,0.75
2022-08-29T14:02:10.215Z,0.68
2022-08-29T14:05:13.800Z,0.60
2022-08-29T14:08:16.258Z,0.80
2022-08-29T14:11:18.453Z,0.70
2022-08-29T14:14:20.528Z,0.60
2022-08-29T14:17:22.711Z,0.60
2022-08-29T14:20:25.207Z,0.63
2022-08-29T14:23:27.348Z,0.50
2022-08-29T14:26:29.436Z,0.60
2022-08-29T14:29:31.932Z,0.60
2022-08-29T14:32:34.123Z,0.57
2022-08-29T14:35:36.254Z,0.63
2022-08-29T14:38:44.571Z,0.60
2022-08-29T14:41:46.782Z,0.45
2022-08-29T14:44:48.919Z,0.50
2022-08-29T14:47:50.997Z,0.55
2022-08-29T14:50:53.058Z,0.32
2022-08-29T14:53:55.185Z,0.50
2022-08-29T14:56:57.302Z,0.40
2022-08-29T14:59:59.366Z,0.60
2022-08-29T15:03:01.655Z,0.50
2022-08-29T15:06:06.122Z,0.50
2022-08-29T15:09:08.254Z,0.40
2022-08-29T15:12:14.479Z,0.40
2022-08-29T15:15:16.586Z,0.50
2022-08-29T15:18:47.997Z,0.95
2022-08-29T15:21:41.070Z,0.70
2022-08-29T15:24:43.146Z,0.60
2022-08-29T15:27:46.896Z,0.85
2022-08-29T15:30:49.144Z,0.60
2022-08-29T15:33:51.362Z,0.45
2022-08-29T15:36:54.180Z,0.60
2022-08-29T15:39:56.460Z,1.08
2022-08-29T15:42:58.650Z,0.25
2022-08-29T15:46:00.820Z,0.40
2022-08-29T15:49:03.814Z,0.30
2022-08-29T15:52:06.020Z,0.40
2022-08-29T15:55:08.379Z,0.40
2022-08-29T15:58:10.486Z,0.50
2022-08-29T16:01:12.598Z,0.20
2022-08-29T16:04:15.988Z,0.35
2022-08-29T16:07:18.185Z,0.40
2022-08-29T16:10:20.406Z,0.40
2022-08-29T16:13:22.492Z,0.30
2022-08-29T16:16:25.190Z,0.40
2022-08-29T16:19:27.503Z,0.30
2022-08-29T16:22:29.682Z,0.30
2022-08-29T16:25:32.376Z,0.30
2022-08-29T16:28:35.037Z,10.63
2022-08-29T16:31:37.364Z,8.20
2022-08-29T16:34:39.490Z,40.60
2022-08-29T16:37:41.592Z,26.25
2022-08-29T16:40:43.792Z,22.55
2022-08-29T16:43:51.768Z,47.13
2022-08-29T16:46:54.135Z,4.28
2022-08-29T16:49:56.240Z,18.08
2022-08-29T16:52:58.354Z,49.50
2022-08-29T16:56:09.198Z,15.95
2022-08-29T16:59:12.547Z,12.48
2022-08-29T17:02:14.690Z,28.67
2022-08-29T17:05:18.431Z,9.02
2022-08-29T17:08:20.471Z,6.47
2022-08-29T17:11:22.559Z,5.50
2022-08-29T17:14:24.849Z,6.45
2022-08-29T17:17:27.104Z,2.65
2022-08-29T17:20:29.184Z,2.80
2022-08-29T17:23:31.772Z,3.85
2022-08-29T17:26:35.843Z,5.40
2022-08-29T17:29:41.889Z,3.33
2022-08-29T17:32:44.379Z,11.40
2022-08-29T17:35:46.864Z,22.90
2022-08-29T17:38:49.065Z,53.10
2022-08-29T17:41:51.863Z,142.57
2022-08-29T17:44:54.592Z,51.78
2022-08-29T17:47:56.690Z,9.60
2022-08-29T17:50:58.840Z,2.03
2022-08-29T17:54:00.932Z,0.98
2022-08-29T17:57:03.694Z,0.98
2022-08-29T18:00:07.279Z,0.70
2022-08-29T18:03:12.444Z,1.00
2022-08-29T18:06:15.317Z,0.85
2022-08-29T18:09:17.628Z,0.70
2022-08-29T18:12:20.332Z,0.63
2022-08-29T18:15:22.421Z,0.50
2022-08-29T18:18:25.762Z,0.50
2022-08-29T18:21:29.524Z,0.52
2022-08-29T18:24:31.611Z,0.95
2022-08-29T18:27:33.859Z,0.50
2022-08-29T18:30:36.076Z,0.70
2022-08-29T18:33:57.208Z,1.70
2022-08-29T18:37:00.278Z,2.72
2022-08-29T18:40:04.056Z,4.70
2022-08-29T18:43:07.319Z,2.40
2022-08-29T18:46:12.099Z,3.17
2022-08-29T18:49:14.940Z,4.20
2022-08-29T18:52:17.020Z,2.00
2022-08-29T18:55:19.399Z,4.03
2022-08-29T18:58:28.070Z,2.38
2022-08-29T19:01:30.471Z,1.10
2022-08-29T19:04:32.632Z,0.90
2022-08-29T19:07:34.986Z,1.00
2022-08-29T19:10:37.219Z,1.40
2022-08-29T19:13:44.083Z,2.20
2022-08-29T19:16:46.846Z,2.50
2022-08-29T19:20:10.460Z,1.83
2022-08-29T19:23:14.631Z,1.50
2022-08-29T19:26:28.395Z,2.13
2022-08-29T19:29:31.150Z,4.05
2022-08-29T19:32:33.235Z,5.13
2022-08-29T19:35:38.001Z,3.47
2022-08-29T19:38:41.723Z,1.70
2022-08-29T19:41:43.827Z,1.10
2022-08-29T19:44:45.943Z,0.90
2022-08-29T19:47:50.439Z,0.90
2022-08-29T19:50:53.972Z,1.05
2022-08-29T19:53:57.195Z,0.80
2022-08-29T19:56:59.568Z,0.90
2022-08-29T20:00:02.125Z,0.90
2022-08-29T20:03:14.931Z,1.08
2022-08-29T20:06:17.272Z,2.40
2022-08-29T20:12:26.367Z,2.10
2022-08-29T20:15:30.919Z,1.35
2022-08-29T20:18:33.786Z,0.90
2022-08-29T20:21:36.174Z,1.00
2022-08-29T20:24:38.251Z,1.00
2022-08-29T20:27:40.550Z,1.10
2022-08-29T20:30:42.885Z,1.08
2022-08-29T20:33:47.404Z,1.00
2022-08-29T20:37:08.075Z,2.35
2022-08-29T20:40:13.486Z,2.05
2022-08-29T20:43:16.408Z,1.20
2022-08-29T20:46:18.530Z,0.93
2022-08-29T20:49:23.239Z,0.85
2022-08-29T20:52:25.378Z,0.60
2022-08-29T20:55:27.487Z,0.70
2022-08-29T20:58:30.125Z,0.80
2022-08-29T21:01:33.313Z,0.90
2022-08-29T21:04:54.195Z,0.70
2022-08-29T21:07:56.384Z,0.90
2022-08-29T21:10:59.476Z,1.00
2022-08-29T21:14:01.614Z,1.15
2022-08-29T21:17:05.448Z,0.75
2022-08-29T21:20:08.710Z,0.80
2022-08-29T21:23:12.205Z,0.60
2022-08-29T21:26:14.935Z,0.70
2022-08-29T21:29:17.293Z,1.00
2022-08-29T21:32:22.405Z,1.10
2022-08-29T21:35:24.696Z,1.00
2022-08-29T21:38:29.101Z,1.17
2022-08-29T21:41:31.796Z,0.98
2022-08-29T21:44:34.035Z,1.00
2022-08-29T21:47:37.273Z,0.80
2022-08-29T21:50:39.381Z,0.90
2022-08-29T21:53:41.602Z,0.82
2022-08-29T21:56:44.164Z,1.60
2022-08-29T21:59:46.351Z,3.05
2022-08-29T22:02:48.734Z,2.10
2022-08-29T22:05:50.860Z,1.40
2022-08-29T22:08:54.747Z,1.33
2022-08-29T22:11:58.051Z,1.10
2022-08-29T22:15:18.979Z,1.10
2022-08-29T22:18:22.408Z,0.88
2022-08-29T22:21:24.782Z,0.75
2022-08-29T22:24:26.850Z,1.67
2022-08-29T22:27:28.943Z,0.80
2022-08-29T22:30:32.410Z,1.00
2022-08-29T22:33:35.434Z,1.00
2022-08-29T22:36:37.525Z,1.00
2022-08-29T22:39:39.602Z,1.13
2022-08-29T22:42:41.792Z,0.90
2022-08-29T22:45:44.016Z,1.02
2022-08-29T22:48:46.118Z,1.30
2022-08-29T22:51:49.053Z,1.00
2022-08-29T22:54:51.155Z,0.82
2022-08-29T22:57:53.249Z,0.80
2022-08-29T23:00:55.937Z,1.08
2022-08-29T23:03:58.787Z,0.93
2022-08-29T23:07:01.120Z,0.85
2022-08-29T23:10:04.175Z,1.00
2022-08-29T23:13:06.243Z,1.20
2022-08-29T23:16:08.415Z,1.40
2022-08-29T23:19:10.567Z,1.23
2022-08-29T23:22:12.828Z,1.15
2022-08-29T23:25:16.119Z,1.50
2022-08-29T23:28:18.229Z,2.25
2022-08-29T23:31:21.101Z,19.88
2022-08-29T23:34:24.086Z,7.63
2022-08-29T23:37:26.195Z,2.83
2022-08-29T23:40:28.482Z,1.98
2022-08-29T23:43:31.103Z,1.52
2022-08-29T23:46:39.007Z,1.20
2022-08-29T23:49:41.232Z,1.23
2022-08-29T23:52:43.879Z,1.15
2022-08-29T23:55:46.294Z,1.40
2022-08-29T23:58:48.397Z,1.20
